Latest Coastal Weather Observations for Holmes Reef

IDQ60701

Issued at 2:22 pm EST Monday 1 March 2021 (issued every 10 minutes, with the page automatically refreshed every 10 minutes)

About coastal observations | Map of coastal stations | Coastal observations for QLD | Marine services | Other Formats
Station Details ID: 200732 Name: HOLMES REEF Lat: -16.47 Lon: 147.87 Height: 1.9 m
Data from the previous 72 hours. | See also: Recent months at Holmes Reef
Date/Time
EST
Wind Sea
Height
m
Swell Vis
km
Cloud Weather Temp
°C
Press
MSL
hPa
Rain since
9am
mm
Dir  Spd
kts
Gust
kts
Height
m
Period
s
Dir
01/02:00pm NW 22 25 - - - - - - - 26.4 997.8 -
01/01:30pm NW 20 26 - - - - - - - 26.4 998.1 -
01/01:00pm NW 23 28 - - - - - - - 26.4 998.6 -
01/12:30pm NW 22 27 - - - - - - - 26.5 998.9 -
01/12:00pm NW 23 28 - - - - - - - 26.2 998.9 -
01/11:30am NW 22 28 - - - - - - - 26.2 999.3 -
01/11:00am NW 23 28 - - - - - - - 27.0 999.4 -
01/10:30am NW 24 29 - - - - - - - 26.7 999.5 -
01/10:00am NW 23 26 - - - - - - - 27.4 999.8 -
01/09:30am NW 25 30 - - - - - - - 27.7 999.6 -
01/09:00am NW 25 29 - - - - - - - 27.8 999.6 -
01/08:30am WNW 25 29 - - - - - - - 27.2 999.3 -
01/08:00am WNW 26 32 - - - - - - - 27.0 999.1 -
01/07:30am W 29 33 - - - - - - - 27.2 998.4 -
01/07:00am W 27 32 - - - - - - - 27.0 998.2 -
01/06:30am W 29 35 - - - - - - - 26.6 998.5 -
01/06:00am W 29 36 - - - - - - - 26.9 998.6 -
01/05:30am W 29 34 - - - - - - - 26.9 998.6 -
01/05:00am W 30 35 - - - - - - - 26.0 998.2 -
01/04:30am W 31 38 - - - - - - - 26.0 998.0 -
01/04:00am W 31 37 - - - - - - - 25.5 997.7 -
01/03:30am W 30 36 - - - - - - - 26.0 997.9 -
01/03:00am WSW 33 38 - - - - - - - 26.5 998.0 -
01/02:30am W 31 37 - - - - - - - 26.5 998.1 -
01/02:00am W 32 38 - - - - - - - 26.6 998.3 -
01/01:30am W 31 36 - - - - - - - 26.5 998.9 -
01/01:00am W 31 36 - - - - - - - 26.1 999.2 -
01/12:30am W 26 31 - - - - - - - 26.4 999.1 -
01/12:00am W 27 32 - - - - - - - 26.5 999.4 -
 
Date/Time
EST
Wind Sea
Height
m
Swell Vis
km
Cloud Weather Temp
°C
Press
MSL
hPa
Rain since
9am
mm
Dir  Spd
kts
Gust
kts
Height
m
Period
s
Dir
28/11:30pm WSW 27 32 - - - - - - - 26.9 999.9 -
28/11:00pm WSW 26 31 - - - - - - - 26.7 1000.3 -
28/10:30pm WSW 25 28 - - - - - - - 27.1 1000.4 -
28/10:00pm WSW 26 30 - - - - - - - 26.9 1000.6 -
28/09:30pm SW 28 33 - - - - - - - 27.1 1000.7 -
28/09:00pm SW 29 32 - - - - - - - 27.3 1000.4 -
28/08:30pm SW 26 33 - - - - - - - 27.4 1000.1 -
28/08:00pm SW 25 29 - - - - - - - 27.3 999.7 -
28/07:30pm SW 26 31 - - - - - - - 27.3 999.4 -
28/07:00pm SW 28 34 - - - - - - - 27.3 999.3 -
28/06:30pm SW 33 39 - - - - - - - 27.4 998.6 -
28/06:00pm SW 33 41 - - - - - - - 27.0 998.8 -
28/05:56pm SW 33 39 - - - - - - - 27.2 998.6 -
28/05:53pm SW 32 39 - - - - - - - 27.1 - -
28/05:30pm W 34 40 - - - - - - - 26.3 998.2 -
28/05:06pm WSW 33 43 - - - - - - - 26.2 998.8 -
28/05:00pm WSW 33 41 - - - - - - - 26.9 998.7 -
28/04:30pm WSW 29 37 - - - - - - - 27.8 999.0 -
28/04:00pm SW 31 38 - - - - - - - 27.7 999.1 -
28/03:30pm SW 27 33 - - - - - - - 27.4 999.1 -
28/03:00pm SW 27 36 - - - - - - - 26.9 999.3 -
28/02:30pm SW 33 40 - - - - - - - 26.9 999.8 -
28/02:00pm SSW 33 41 - - - - - - - 27.0 999.8 -
28/01:30pm SW 33 39 - - - - - - - 26.8 999.8 -
28/01:00pm WSW 30 36 - - - - - - - 27.1 1000.1 -
28/12:30pm WSW 27 32 - - - - - - - 26.8 1000.7 -
28/12:18pm WSW 19 29 - - - - - - - 26.8 1000.7 -
28/12:00pm W 22 26 - - - - - - - 27.6 1000.9 -
28/11:30am WSW 16 19 - - - - - - - 27.8 1001.5 -
28/11:00am SW 17 19 - - - - - - - 27.5 1002.1 -
28/10:30am SW 16 19 - - - - - - - 27.5 1002.2 -
28/10:00am SW 14 18 - - - - - - - 26.9 1002.5 -
28/09:30am SW 16 19 - - - - - - - 26.6 1002.7 -
28/09:00am SSW 15 16 - - - - - - - 27.8 1002.7 -
28/08:30am SSW 16 19 - - - - - - - 27.5 1002.8 -
28/08:00am SSW 18 25 - - - - - - - 26.7 1002.7 -
28/07:30am S 15 19 - - - - - - - 25.7 1002.3 -
28/07:00am S 13 16 - - - - - - - 26.4 1001.7 -
28/06:30am SSW 12 14 - - - - - - - 26.9 1001.6 -
28/06:00am SSW 12 14 - - - - - - - 26.4 1001.4 -
28/05:30am SSW 17 19 - - - - - - - 26.6 1001.2 -
28/05:00am S 21 26 - - - - - - - 26.1 1001.3 -
28/04:30am SSW 18 20 - - - - - - - 26.4 1001.3 -
28/04:00am S 19 22 - - - - - - - 26.0 1001.6 -
28/03:30am S 21 24 - - - - - - - 26.0 1001.9 -
28/03:00am SSW 20 23 - - - - - - - 26.3 1002.3 -
28/02:30am S 14 16 - - - - - - - 25.9 1002.6 -
28/02:00am SSE 14 16 - - - - - - - 25.5 1002.8 -
28/01:30am SSE 16 19 - - - - - - - 25.9 1003.2 -
28/01:00am SSE 16 19 - - - - - - - 25.5 1003.5 -
28/12:30am S 18 21 - - - - - - - 26.7 1004.0 -
28/12:00am S 19 23 - - - - - - - 26.4 1004.6 -
 
Date/Time
EST
Wind Sea
Height
m
Swell Vis
km
Cloud Weather Temp
°C
Press
MSL
hPa
Rain since
9am
mm
Dir  Spd
kts
Gust
kts
Height
m
Period
s
Dir
27/11:30pm SSE 13 21 - - - - - - - 26.1 1004.7 -
27/11:00pm SE 15 17 - - - - - - - 25.3 1004.7 -
27/10:30pm SE 19 22 - - - - - - - 25.9 1004.8 -
27/10:00pm S 13 15 - - - - - - - 27.5 1005.0 -
27/09:30pm S 13 14 - - - - - - - 26.9 1005.0 -
27/09:00pm S 13 15 - - - - - - - 26.3 1005.0 -
27/08:30pm SSE 13 16 - - - - - - - 26.3 1004.7 -
27/08:00pm SE 13 16 - - - - - - - 25.7 1004.6 -
27/07:30pm SE 21 29 - - - - - - - 25.5 1004.4 -
27/07:25pm SSE 16 27 - - - - - - - 26.8 1004.4 -
27/07:00pm S 14 16 - - - - - - - 26.4 1003.7 -
27/06:30pm S 11 13 - - - - - - - 25.9 1003.6 -
27/06:00pm SSE 18 20 - - - - - - - 25.5 1003.3 -
27/05:33pm SSE 23 25 - - - - - - - 26.0 - -
27/05:30pm S 15 21 - - - - - - - 26.7 1003.2 -
27/05:00pm S 14 16 - - - - - - - 26.4 1003.1 -
27/04:30pm S 11 13 - - - - - - - 26.1 1002.8 -
27/04:00pm S 11 12 - - - - - - - 26.0 1002.7 -
27/03:30pm S 11 13 - - - - - - - 25.8 1002.7 -
27/03:00pm SE 10 11 - - - - - - - 25.3 1002.8 -
27/02:30pm ESE 15 17 - - - - - - - 25.8 1003.0 -
27/02:00pm ESE 11 12 - - - - - - - 25.6 1003.4 -
27/01:30pm ESE 12 15 - - - - - - - 25.6 1003.6 -
27/01:00pm E 14 16 - - - - - - - 25.9 1003.9 -
27/12:30pm SE 9 13 - - - - - - - 28.2 1004.3 -
27/12:00pm ESE 8 10 - - - - - - - 28.3 1004.6 -
27/11:30am ESE 9 11 - - - - - - - 28.1 1004.7 -
27/11:00am ESE 11 13 - - - - - - - 27.3 1004.9 -
27/10:30am ESE 18 20 - - - - - - - 27.0 1005.0 -
27/10:00am E 13 17 - - - - - - - 27.7 1005.2 -
27/09:30am E 11 13 - - - - - - - 27.9 1005.1 -
27/09:00am E 9 10 - - - - - - - 27.3 1005.2 -
27/08:30am E 10 14 - - - - - - - 26.3 1004.9 -
27/08:19am E 15 21 - - - - - - - 26.0 1004.9 -
27/08:00am ESE 9 10 - - - - - - - 27.4 1004.7 -
27/07:30am E 11 13 - - - - - - - 27.1 1004.3 -
27/07:00am E 13 15 - - - - - - - 26.6 1004.0 -
27/06:30am E 12 15 - - - - - - - 26.8 1003.7 -
27/06:00am E 14 16 - - - - - - - 26.6 1003.3 -
27/05:30am ENE 14 18 - - - - - - - 26.6 1003.4 -
27/05:00am ENE 9 12 - - - - - - - 27.2 1003.1 -
27/04:30am ENE 12 13 - - - - - - - 27.3 1002.9 -
27/04:00am ENE 12 13 - - - - - - - 27.0 1002.8 -
27/03:30am ENE 11 12 - - - - - - - 27.6 1002.8 -
27/03:00am E 12 13 - - - - - - - 27.9 1002.7 -
27/02:30am SE 11 13 - - - - - - - 27.4 1002.9 -
27/02:00am ESE 9 11 - - - - - - - 27.9 1003.4 -
27/01:30am ESE 9 11 - - - - - - - 27.6 1003.7 -
27/01:00am ESE 9 11 - - - - - - - 27.9 1004.2 -
27/12:30am ESE 10 11 - - - - - - - 28.0 1004.5 -
27/12:00am ESE 10 13 - - - - - - - 28.0 1004.7 -
 
Date/Time
EST
Wind Sea
Height
m
Swell Vis
km
Cloud Weather Temp
°C
Press
MSL
hPa
Rain since
9am
mm
Dir  Spd
kts
Gust
kts
Height
m
Period
s
Dir
26/11:30pm - - - - - - - - - - 28.0 1005.1 -
26/10:30pm ESE 14 16 - - - - - - - 27.8 1005.4 -
26/10:00pm ESE 12 14 - - - - - - - 27.9 1005.2 -
26/09:00pm ESE 14 15 - - - - - - - 27.8 1004.9 -
26/08:30pm E 13 15 - - - - - - - 27.8 1005.0 -
26/08:00pm E 13 15 - - - - - - - 27.6 1004.7 -
26/07:30pm ESE 12 14 - - - - - - - 27.4 1004.3 -
26/07:00pm E 12 14 - - - - - - - 27.1 1003.9 -
26/06:30pm E 12 14 - - - - - - - 27.0 1003.7 -
26/06:00pm E 11 13 - - - - - - - 26.6 1003.5 -
26/05:30pm ENE 9 11 - - - - - - - 26.4 1003.1 -
26/05:00pm ENE 12 14 - - - - - - - 26.4 1002.7 -
26/04:30pm ENE 14 16 - - - - - - - 26.3 1002.9 -
26/04:00pm ENE 14 17 - - - - - - - 26.2 1002.9 -
26/03:30pm ENE 12 15 - - - - - - - 27.0 1002.9 -
26/03:00pm E 9 11 - - - - - - - 26.5 1002.8 -
26/02:30pm E 5 7 - - - - - - - 25.8 1003.1 -

Other formats

Comma delimited format used in spreadsheet applications
http://www.bom.gov.au/fwo/IDQ60701/IDQ60701.94289.axf

JavaScript Object Notation format (JSON) in row-major order
http://www.bom.gov.au/fwo/IDQ60701/IDQ60701.94289.json

Data quality

Most of these data are generated automatically and are frequently updated. Quality checks on data are not normally performed. It is possible for incorrect values to appear. Refer to information at About Latest Weather Observations and please check the disclaimer before using these data.